createdAt,value
2018-01-22T00:01:15.903Z,100354.08
2018-01-22T00:03:45.708Z,100351.84
2018-01-22T00:06:15.007Z,100337.74
2018-01-22T00:08:44.222Z,100332.45
2018-01-22T00:11:13.761Z,100324.70
2018-01-22T00:13:43.678Z,100313.20
2018-01-22T00:16:12.915Z,100316.55
2018-01-22T00:18:43.223Z,100314.83
2018-01-22T00:21:12.510Z,100311.27
2018-01-22T00:23:41.739Z,100296.95
2018-01-22T00:26:11.202Z,100295.57
2018-01-22T00:28:40.366Z,100292.61
2018-01-22T00:31:10.515Z,100289.37
2018-01-22T00:33:40.000Z,100276.30
2018-01-22T00:36:09.243Z,100271.64
2018-01-22T00:38:38.723Z,100264.92
2018-01-22T00:41:08.215Z,100245.73
2018-01-22T00:43:37.344Z,100231.03
2018-01-22T00:46:06.503Z,100226.88
2018-01-22T00:48:36.032Z,100211.94
2018-01-22T00:51:05.319Z,100206.87
2018-01-22T00:53:34.516Z,100199.69
2018-01-22T00:56:04.520Z,100185.43
2018-01-22T00:58:33.618Z,100187.86
2018-01-22T01:01:02.966Z,100181.69
2018-01-22T01:03:32.344Z,100175.55
2018-01-22T01:06:01.810Z,100178.47
2018-01-22T01:08:30.961Z,100176.67
2018-01-22T01:11:00.143Z,100177.23
2018-01-22T01:13:29.460Z,100184.20
2018-01-22T01:15:58.651Z,100176.91
2018-01-22T01:18:28.330Z,100179.37
2018-01-22T01:20:57.451Z,100170.78
2018-01-22T01:23:26.864Z,100158.52
2018-01-22T01:25:56.030Z,100152.63
2018-01-22T01:28:25.236Z,100155.37
2018-01-22T01:30:54.711Z,100144.94
2018-01-22T01:33:23.950Z,100146.34
2018-01-22T01:35:53.082Z,100144.91
2018-01-22T01:38:22.725Z,100144.91
2018-01-22T01:40:51.979Z,100141.63
2018-01-22T01:43:21.266Z,100134.95
2018-01-22T01:45:50.658Z,100126.20
2018-01-22T01:48:20.963Z,100121.89
2018-01-22T01:50:50.140Z,100123.34
2018-01-22T01:53:19.795Z,100119.30
2018-01-22T01:55:49.185Z,100115.45
2018-01-22T01:58:18.306Z,100117.52
2018-01-22T02:00:47.849Z,100116.52
2018-01-22T02:03:16.956Z,100113.12
2018-01-22T02:05:46.069Z,100105.11
2018-01-22T02:08:15.543Z,100100.60
2018-01-22T02:10:44.705Z,100093.67
2018-01-22T02:13:13.977Z,100082.81
2018-01-22T02:15:43.483Z,100077.31
2018-01-22T02:18:12.746Z,100069.95
2018-01-22T02:20:41.882Z,100081.83
2018-01-22T02:23:11.304Z,100070.58
2018-01-22T02:25:40.459Z,100070.58
2018-01-22T02:28:09.572Z,100053.40
2018-01-22T02:30:38.736Z,100050.56
2018-01-22T02:33:07.843Z,100045.43
2018-01-22T02:35:37.346Z,100045.86
2018-01-22T02:38:06.506Z,100047.16
2018-01-22T02:40:35.795Z,100049.45
2018-01-22T02:43:04.922Z,100038.21
2018-01-22T02:45:34.085Z,100028.80
2018-01-22T02:48:04.808Z,100028.81
2018-01-22T02:50:35.393Z,100026.97
2018-01-22T02:53:04.683Z,100018.92
2018-01-22T02:55:33.796Z,100018.60
2018-01-22T02:58:05.097Z,100005.15
2018-01-22T03:00:34.498Z,100011.06
2018-01-22T03:03:03.889Z,100015.51
2018-01-22T03:05:33.322Z,100014.14
2018-01-22T03:08:03.591Z,100018.97
2018-01-22T03:10:32.822Z,100019.22
2018-01-22T03:13:02.136Z,100020.37
2018-01-22T03:15:31.850Z,100016.06
2018-01-22T03:18:01.111Z,100010.20
2018-01-22T03:20:30.260Z,100019.58
2018-01-22T03:22:59.704Z,100021.41
2018-01-22T03:25:28.819Z,100022.83
2018-01-22T03:27:57.993Z,100019.61
2018-01-22T03:30:27.418Z,100022.77
2018-01-22T03:32:56.524Z,100025.11
2018-01-22T03:35:25.646Z,100022.45
2018-01-22T03:37:55.313Z,100026.22
2018-01-22T03:40:24.769Z,100028.89
2018-01-22T03:42:53.899Z,100028.92
2018-01-22T03:45:23.294Z,100034.35
2018-01-22T03:47:52.417Z,100024.98
2018-01-22T03:50:22.019Z,100025.61
2018-01-22T03:52:51.482Z,100023.77
2018-01-22T03:55:20.601Z,100029.94
2018-01-22T03:57:49.743Z,100030.52
2018-01-22T04:00:19.378Z,100026.99
2018-01-22T04:02:48.523Z,100024.05
2018-01-22T04:05:17.621Z,100017.13
2018-01-22T04:07:47.052Z,100014.88
2018-01-22T04:10:16.213Z,100015.83
2018-01-22T04:12:45.354Z,100015.94
2018-01-22T04:15:14.773Z,100013.95
2018-01-22T04:17:43.899Z,100010.77
2018-01-22T04:20:13.047Z,100009.19
2018-01-22T04:22:42.470Z,100005.14
2018-01-22T04:25:11.771Z,100003.19
2018-01-22T04:27:40.900Z,99992.63
2018-01-22T04:30:10.327Z,99990.61
2018-01-22T04:32:39.446Z,99995.30
2018-01-22T04:35:08.657Z,99988.25
2018-01-22T04:37:38.184Z,99983.55
2018-01-22T04:40:07.292Z,99989.83
2018-01-22T04:42:36.407Z,99994.67
2018-01-22T04:45:06.761Z,99994.88
2018-01-22T04:47:35.905Z,99991.20
2018-01-22T04:50:05.737Z,99996.05
2018-01-22T04:52:35.173Z,99991.01
2018-01-22T04:55:04.354Z,99994.09
2018-01-22T04:57:33.882Z,99982.98
2018-01-22T05:00:04.260Z,99986.22
2018-01-22T05:02:33.451Z,99987.31
2018-01-22T05:05:17.040Z,99981.59
2018-01-22T05:07:46.563Z,99991.28
2018-01-22T05:10:15.738Z,99981.41
2018-01-22T05:12:45.173Z,99977.61
2018-01-22T05:15:14.330Z,99979.95
2018-01-22T05:17:43.426Z,99980.75
2018-01-22T05:20:12.570Z,99973.89
2018-01-22T05:22:41.715Z,99977.86
2018-01-22T05:25:11.103Z,99971.79
2018-01-22T05:27:40.225Z,99972.67
2018-01-22T05:30:09.347Z,99964.70
2018-01-22T05:32:38.533Z,99965.59
2018-01-22T05:35:07.702Z,99969.92
2018-01-22T05:37:37.129Z,99968.09
2018-01-22T05:40:06.246Z,99968.11
2018-01-22T05:42:35.517Z,99964.86
2018-01-22T05:45:04.895Z,99966.82
2018-01-22T05:47:34.012Z,99970.40
2018-01-22T05:50:04.534Z,99970.80
2018-01-22T05:52:34.014Z,99957.80
2018-01-22T05:55:03.198Z,99957.65
2018-01-22T05:57:32.409Z,99958.86
2018-01-22T06:00:02.631Z,99969.69
2018-01-22T06:02:31.847Z,99962.33
2018-01-22T06:05:01.233Z,99955.69
2018-01-22T06:07:31.127Z,99953.01
2018-01-22T06:10:00.614Z,99958.36
2018-01-22T06:12:29.914Z,99953.66
2018-01-22T06:14:59.472Z,99952.28
2018-01-22T06:17:28.578Z,99943.13
2018-01-22T06:19:58.081Z,99945.73
2018-01-22T06:22:27.303Z,99950.77
2018-01-22T06:24:56.473Z,99945.49
2018-01-22T06:29:53.829Z,99937.70
2018-01-22T06:32:25.550Z,99933.03
2018-01-22T06:34:55.170Z,99924.44
2018-01-22T06:37:25.695Z,99915.42
2018-01-22T06:39:55.774Z,99918.09
2018-01-22T06:42:24.944Z,99913.19
2018-01-22T06:44:54.141Z,99915.79
2018-01-22T06:49:57.357Z,99915.58
2018-01-22T06:52:26.705Z,99915.92
2018-01-22T06:54:56.221Z,99920.05
2018-01-22T06:57:25.411Z,99916.66
2018-01-22T06:59:55.295Z,99918.16
2018-01-22T07:02:26.091Z,99916.80
2018-01-22T07:04:55.313Z,99912.95
2018-01-22T07:07:24.704Z,99909.00
2018-01-22T07:09:54.127Z,99905.23
2018-01-22T07:12:23.422Z,99913.20
2018-01-22T07:14:52.617Z,99912.53
2018-01-22T07:17:22.312Z,99915.00
2018-01-22T07:19:51.449Z,99915.48
2018-01-22T07:22:20.704Z,99911.59
2018-01-22T07:24:49.839Z,99913.17
2018-01-22T07:27:18.950Z,99912.89
2018-01-22T07:29:49.194Z,99909.06
2018-01-22T07:32:18.376Z,99909.86
2018-01-22T07:34:47.489Z,99908.69
2018-01-22T07:37:16.931Z,99907.05
2018-01-22T07:39:46.043Z,99913.27
2018-01-22T07:42:15.164Z,99923.85
2018-01-22T07:44:44.586Z,99929.41
2018-01-22T07:47:13.712Z,99925.71
2018-01-22T07:49:43.896Z,99929.27
2018-01-22T07:52:13.338Z,99929.13
2018-01-22T07:54:42.675Z,99924.06
2018-01-22T07:57:11.862Z,99920.33
2018-01-22T07:59:41.381Z,99915.91
2018-01-22T08:02:10.735Z,99913.17
2018-01-22T08:04:39.916Z,99919.88
2018-01-22T08:07:09.414Z,99907.88
2018-01-22T08:09:38.539Z,99904.77
2018-01-22T08:12:07.823Z,99898.53
2018-01-22T08:14:37.618Z,99902.05
2018-01-22T08:17:06.959Z,99889.77
2018-01-22T08:19:36.123Z,99893.59
2018-01-22T08:22:06.850Z,99886.08
2018-01-22T08:24:38.177Z,99880.17
2018-01-22T08:27:10.767Z,99885.51
2018-01-22T08:29:43.939Z,99884.04
2018-01-22T08:32:13.398Z,99890.38
2018-01-22T08:34:42.643Z,99904.34
2018-01-22T08:37:11.910Z,99911.59
2018-01-22T08:39:41.065Z,99900.08
2018-01-22T08:42:10.509Z,99898.48
2018-01-22T08:44:40.977Z,99904.22
2018-01-22T08:47:10.110Z,99907.28
2018-01-22T08:49:39.276Z,99900.99
2018-01-22T08:52:08.453Z,99910.36
2018-01-22T08:54:37.911Z,99902.48
2018-01-22T08:57:07.063Z,99908.76
2018-01-22T08:59:36.206Z,99897.78
2018-01-22T09:02:06.729Z,99905.25
2018-01-22T09:04:37.164Z,99903.38
2018-01-22T09:07:06.308Z,99899.99
2018-01-22T09:09:38.391Z,99893.52
2018-01-22T09:12:07.693Z,99885.17
2018-01-22T09:14:36.869Z,99885.95
2018-01-22T09:17:06.497Z,99881.01
2018-01-22T09:19:37.475Z,99872.97
2018-01-22T09:22:06.685Z,99876.52
2018-01-22T09:24:35.884Z,99881.23
2018-01-22T09:27:06.046Z,99877.75
2018-01-22T09:29:35.495Z,99882.58
2018-01-22T09:32:05.656Z,99876.09
2018-01-22T09:34:34.973Z,99874.98
2018-01-22T09:37:04.272Z,99875.20
2018-01-22T09:39:33.406Z,99877.06
2018-01-22T09:42:04.112Z,99894.33
2018-01-22T09:44:33.838Z,99900.21
2018-01-22T09:47:04.421Z,99900.94
2018-01-22T09:49:34.637Z,99906.75
2018-01-22T09:52:04.987Z,99911.26
2018-01-22T09:54:35.487Z,99914.18
2018-01-22T09:57:04.919Z,99921.05
2018-01-22T09:59:34.842Z,99923.08
2018-01-22T10:02:05.469Z,99920.36
2018-01-22T10:04:35.815Z,99914.65
2018-01-22T10:07:05.041Z,99915.33
2018-01-22T10:09:34.505Z,99919.91
2018-01-22T10:12:04.737Z,99917.91
2018-01-22T10:14:33.937Z,99919.72
2018-01-22T10:17:04.886Z,99922.88
2018-01-22T10:19:36.983Z,99917.81
2018-01-22T10:22:06.982Z,99915.62
2018-01-22T10:24:36.807Z,99909.74
2018-01-22T10:27:06.128Z,99911.11
2018-01-22T10:29:35.610Z,99917.17
2018-01-22T10:32:05.759Z,99913.11
2018-01-22T10:34:35.604Z,99908.00
2018-01-22T10:37:05.929Z,99915.88
2018-01-22T10:39:35.128Z,99901.79
2018-01-22T10:42:05.798Z,99901.95
2018-01-22T10:44:35.064Z,99905.76
2018-01-22T10:47:04.503Z,99894.41
2018-01-22T10:49:35.141Z,99892.73
2018-01-22T10:52:05.374Z,99893.19
2018-01-22T10:54:34.863Z,99880.98
2018-01-22T10:57:04.773Z,99879.70
2018-01-22T10:59:34.905Z,99887.31
2018-01-22T11:02:05.222Z,99874.95
2018-01-22T11:04:34.465Z,99876.46
2018-01-22T11:07:04.227Z,99876.78
2018-01-22T11:09:33.453Z,99880.27
2018-01-22T11:12:04.726Z,99871.23
2018-01-22T11:14:35.400Z,99868.20
2018-01-22T11:17:05.198Z,99858.02
2018-01-22T11:19:35.184Z,99853.64
2018-01-22T11:22:05.519Z,99856.34
2018-01-22T11:24:35.072Z,99851.48
2018-01-22T11:27:04.989Z,99843.96
2018-01-22T11:29:34.450Z,99840.02
2018-01-22T11:32:05.078Z,99837.94
2018-01-22T11:34:34.269Z,99831.98
2018-01-22T11:37:03.557Z,99825.89
2018-01-22T11:39:32.734Z,99831.47
2018-01-22T11:42:03.001Z,99832.68
2018-01-22T11:44:33.850Z,99826.14
2018-01-22T11:47:03.492Z,99825.17
2018-01-22T11:49:34.242Z,99832.78
2018-01-22T11:52:05.031Z,99831.96
2018-01-22T11:54:34.368Z,99832.64
2018-01-22T11:57:04.067Z,99831.16
2018-01-22T12:02:17.049Z,99818.73
2018-01-22T12:04:47.263Z,99823.28
2018-01-22T12:07:16.643Z,99823.30
2018-01-22T12:09:45.871Z,99829.24
2018-01-22T12:12:15.466Z,99830.02
2018-01-22T12:14:44.722Z,99826.95
2018-01-22T12:17:13.940Z,99821.39
2018-01-22T12:19:43.454Z,99824.34
2018-01-22T12:22:12.768Z,99823.48
2018-01-22T12:24:42.136Z,99823.65
2018-01-22T12:27:11.725Z,99824.47
2018-01-22T12:29:42.412Z,99819.45
2018-01-22T12:32:11.586Z,99823.86
2018-01-22T12:34:41.081Z,99825.05
2018-01-22T12:37:10.334Z,99824.11
2018-01-22T12:39:39.535Z,99819.09
2018-01-22T12:42:09.062Z,99813.58
2018-01-22T12:44:38.271Z,99806.15
2018-01-22T12:47:07.490Z,99803.64
2018-01-22T12:49:36.709Z,99801.52
2018-01-22T12:52:05.966Z,99799.90
2018-01-22T12:54:36.654Z,99795.59
2018-01-22T12:57:05.783Z,99798.70
2018-01-22T12:59:35.083Z,99799.73
2018-01-22T13:02:06.360Z,99795.80
2018-01-22T13:04:37.828Z,99787.27
2018-01-22T13:07:07.339Z,99788.91
2018-01-22T13:09:39.236Z,99787.50
2018-01-22T13:12:08.583Z,99782.59
2018-01-22T13:14:37.755Z,99784.53
2018-01-22T13:17:06.910Z,99784.62
2018-01-22T13:19:36.520Z,99786.77
2018-01-22T13:22:06.184Z,99777.66
2018-01-22T13:24:35.359Z,99781.59
2018-01-22T13:27:05.564Z,99785.58
2018-01-22T13:29:34.726Z,99777.78
2018-01-22T13:32:05.104Z,99782.41
2018-01-22T13:34:35.503Z,99790.95
2018-01-22T13:37:05.511Z,99791.12
2018-01-22T13:39:34.883Z,99782.73
2018-01-22T13:42:05.500Z,99784.16
2018-01-22T13:44:34.608Z,99784.48
2018-01-22T13:49:57.266Z,99788.54
2018-01-22T13:52:29.357Z,99799.41
2018-01-22T13:54:59.145Z,99806.66
2018-01-22T13:57:31.076Z,99802.72
2018-01-22T14:00:00.420Z,99808.58
2018-01-22T14:02:30.443Z,99808.03
2018-01-22T14:04:59.688Z,99808.59
2018-01-22T14:07:29.193Z,99805.30
2018-01-22T14:09:58.881Z,99820.09
2018-01-22T14:12:28.065Z,99825.92
2018-01-22T14:14:57.252Z,99825.37
2018-01-22T14:17:27.770Z,99826.20
2018-01-22T14:19:57.242Z,99838.38
2018-01-22T14:22:27.738Z,99843.00
2018-01-22T14:24:56.914Z,99844.16
2018-01-22T14:27:26.408Z,99853.53
2018-01-22T14:29:55.531Z,99851.14
2018-01-22T14:32:27.163Z,99858.16
2018-01-22T14:34:56.914Z,99866.75
2018-01-22T14:37:27.579Z,99875.20
2018-01-22T14:39:56.748Z,99878.12
2018-01-22T14:42:26.196Z,99883.39
2018-01-22T14:44:55.355Z,99885.77
2018-01-22T14:47:24.754Z,99881.33
2018-01-22T14:49:54.236Z,99882.30
2018-01-22T14:52:23.680Z,99893.76
2018-01-22T14:54:52.850Z,99899.84
2018-01-22T14:57:22.519Z,99904.27
2018-01-22T14:59:51.687Z,99905.85
2018-01-22T15:02:20.864Z,99911.88
2018-01-22T15:04:50.318Z,99919.16
2018-01-22T15:07:20.451Z,99927.93
2018-01-22T15:09:49.626Z,99927.36
2018-01-22T15:12:19.096Z,99926.63
2018-01-22T15:14:49.705Z,99929.81
2018-01-22T15:17:18.849Z,99927.31
2018-01-22T15:19:48.450Z,99925.89
2018-01-22T15:22:17.657Z,99937.69
2018-01-22T15:24:46.844Z,99945.09
2018-01-22T15:27:15.946Z,99954.86
2018-01-22T15:29:45.111Z,99964.39
2018-01-22T15:32:14.567Z,99974.78
2018-01-22T15:34:43.740Z,99976.20
2018-01-22T15:37:12.855Z,99981.45
2018-01-22T15:39:42.288Z,99983.81
2018-01-22T15:42:11.404Z,99991.58
2018-01-22T15:44:41.262Z,99992.98
2018-01-22T15:47:10.707Z,99995.28
2018-01-22T15:49:43.092Z,100004.44
2018-01-22T15:52:12.261Z,100010.76
2018-01-22T15:54:41.762Z,100016.22
2018-01-22T15:57:10.979Z,100030.84
2018-01-22T15:59:40.195Z,100037.67
2018-01-22T16:02:09.668Z,100037.27
2018-01-22T16:04:38.820Z,100043.05
2018-01-22T16:07:07.939Z,100055.56
2018-01-22T16:09:38.354Z,100062.81
2018-01-22T16:12:07.782Z,100067.45
2018-01-22T16:14:37.300Z,100064.33
2018-01-22T16:17:07.650Z,100061.05
2018-01-22T16:19:38.456Z,100067.63
2018-01-22T16:22:07.627Z,100073.63
2018-01-22T16:24:37.062Z,100079.80
2018-01-22T16:27:06.239Z,100071.09
2018-01-22T16:29:35.385Z,100078.75
2018-01-22T16:32:05.634Z,100093.38
2018-01-22T16:34:34.908Z,100103.59
2018-01-22T16:37:04.483Z,100112.55
2018-01-22T16:39:33.631Z,100114.73
2018-01-22T16:42:03.751Z,100114.07
2018-01-22T16:44:33.281Z,100119.43
2018-01-22T16:47:06.519Z,100133.55
2018-01-22T16:49:37.513Z,100143.94
2018-01-22T16:52:07.000Z,100151.22
2018-01-22T16:54:36.909Z,100158.86
2018-01-22T16:57:06.082Z,100163.72
2018-01-22T16:59:35.761Z,100172.23
2018-01-22T17:02:05.849Z,100180.81
2018-01-22T17:04:35.865Z,100189.44
2018-01-22T17:07:05.997Z,100194.78
2018-01-22T17:09:36.550Z,100193.52
2018-01-22T17:12:07.076Z,100190.96
2018-01-22T17:14:36.717Z,100201.55
2018-01-22T17:17:06.963Z,100212.51
2018-01-22T17:19:36.997Z,100214.98
2018-01-22T17:22:06.532Z,100220.86
2018-01-22T17:24:36.538Z,100230.83
2018-01-22T17:27:05.760Z,100238.53
2018-01-22T17:29:36.609Z,100243.23
2018-01-22T17:32:07.307Z,100255.70
2018-01-22T17:34:36.478Z,100265.42
2018-01-22T17:37:06.932Z,100268.02
2018-01-22T17:39:36.205Z,100275.01
2018-01-22T17:42:06.456Z,100284.14
2018-01-22T17:44:35.993Z,100290.63
2018-01-22T17:47:05.863Z,100310.25
2018-01-22T17:49:35.061Z,100321.06
2018-01-22T17:52:05.487Z,100326.29
2018-01-22T17:54:35.683Z,100337.88
2018-01-22T17:57:06.550Z,100342.18
2018-01-22T17:59:37.010Z,100344.08
2018-01-22T18:02:06.252Z,100347.86
2018-01-22T18:04:35.735Z,100351.12
2018-01-22T18:07:05.246Z,100351.05
2018-01-22T18:09:34.581Z,100361.78
2018-01-22T18:12:04.845Z,100371.20
2018-01-22T18:14:34.138Z,100378.73
2018-01-22T18:17:04.474Z,100373.25
2018-01-22T18:19:34.167Z,100371.38
2018-01-22T18:22:04.966Z,100380.10
2018-01-22T18:24:34.440Z,100388.31
2018-01-22T18:27:04.288Z,100397.37
2018-01-22T18:29:33.432Z,100399.42
2018-01-22T18:32:03.352Z,100406.84
2018-01-22T18:34:32.944Z,100415.55
2018-01-22T18:37:02.591Z,100425.72
2018-01-22T18:39:31.750Z,100427.84
2018-01-22T18:42:01.611Z,100425.80
2018-01-22T18:44:30.833Z,100426.76
2018-01-22T18:47:00.045Z,100425.27
2018-01-22T18:49:29.499Z,100432.70
2018-01-22T18:51:58.622Z,100433.98
2018-01-22T18:54:27.773Z,100442.44
2018-01-22T18:56:57.368Z,100447.48
2018-01-22T18:59:26.939Z,100450.58
2018-01-22T19:01:56.177Z,100460.75
2018-01-22T19:04:25.517Z,100454.94
2018-01-22T19:06:54.691Z,100472.86
2018-01-22T19:09:24.205Z,100472.59
2018-01-22T19:11:54.092Z,100471.65
2018-01-22T19:14:23.402Z,100484.20
2018-01-22T19:16:52.599Z,100492.80
2018-01-22T19:19:21.728Z,100500.11
2018-01-22T19:21:51.277Z,100497.13
2018-01-22T19:24:20.414Z,100498.47
2018-01-22T19:26:49.540Z,100503.70
2018-01-22T19:29:19.067Z,100503.17
2018-01-22T19:31:48.243Z,100509.64
2018-01-22T19:34:17.394Z,100506.42
2018-01-22T19:36:46.961Z,100513.73
2018-01-22T19:39:16.075Z,100529.63
2018-01-22T19:41:45.472Z,100531.63
2018-01-22T19:44:15.068Z,100539.89
2018-01-22T19:46:44.187Z,100548.36
2018-01-22T19:49:13.335Z,100559.78
2018-01-22T19:51:42.504Z,100562.76
2018-01-22T19:54:11.631Z,100573.16
2018-01-22T19:56:40.764Z,100574.28
2018-01-22T19:59:10.230Z,100575.78
2018-01-22T20:01:40.336Z,100579.09
2018-01-22T20:04:09.560Z,100587.16
2018-01-22T20:06:38.756Z,100592.19
2018-01-22T20:09:07.863Z,100585.30
2018-01-22T20:11:37.343Z,100581.39
2018-01-22T20:14:06.490Z,100583.81
2018-01-22T20:16:37.655Z,100583.40
2018-01-22T20:19:07.240Z,100596.32
2018-01-22T20:21:36.355Z,100603.35
2018-01-22T20:24:06.397Z,100609.05
2018-01-22T20:26:35.834Z,100623.94
2018-01-22T20:29:05.078Z,100632.34
2018-01-22T20:31:34.393Z,100648.00
2018-01-22T20:34:04.717Z,100656.16
2018-01-22T20:36:34.012Z,100655.02
2018-01-22T20:39:03.535Z,100658.63
2018-01-22T20:41:33.103Z,100660.82
2018-01-22T20:44:05.697Z,100669.27
2018-01-22T20:49:06.808Z,100664.57
2018-01-22T20:51:36.200Z,100667.70
2018-01-22T20:54:06.270Z,100674.94
2018-01-22T20:56:35.935Z,100679.27
2018-01-22T20:59:05.084Z,100683.03
2018-01-22T21:01:34.354Z,100687.34
2018-01-22T21:04:05.395Z,100696.41
2018-01-22T21:06:35.522Z,100699.39
2018-01-22T21:09:05.203Z,100702.53
2018-01-22T21:11:34.403Z,100716.64
2018-01-22T21:14:04.322Z,100723.80
2018-01-22T21:16:34.064Z,100725.35
2018-01-22T21:19:04.451Z,100729.28
2018-01-22T21:21:33.659Z,100742.80
2018-01-22T21:24:04.085Z,100739.30
2018-01-22T21:26:33.445Z,100733.72
2018-01-22T21:29:03.031Z,100743.23
2018-01-22T21:31:34.571Z,100746.53
2018-01-22T21:34:05.167Z,100749.17
2018-01-22T21:36:34.438Z,100756.87
2018-01-22T21:39:04.026Z,100751.70
2018-01-22T21:41:33.558Z,100757.55
2018-01-22T21:44:04.173Z,100752.92
2018-01-22T21:46:33.458Z,100760.36
2018-01-22T21:49:03.176Z,100757.45
2018-01-22T21:51:33.063Z,100763.98
2018-01-22T21:54:02.540Z,100769.91
2018-01-22T21:56:31.829Z,100769.94
2018-01-22T21:59:01.365Z,100765.18
2018-01-22T22:01:30.561Z,100770.97
2018-01-22T22:03:59.745Z,100778.91
2018-01-22T22:06:29.384Z,100786.53
2018-01-22T22:08:58.598Z,100803.96
2018-01-22T22:11:27.914Z,100815.66
2018-01-22T22:13:57.712Z,100808.02
2018-01-22T22:16:26.995Z,100810.98
2018-01-22T22:18:57.317Z,100825.41
2018-01-22T22:21:27.082Z,100824.58
2018-01-22T22:23:56.307Z,100840.23
2018-01-22T22:26:27.518Z,100850.04
2018-01-22T22:28:58.357Z,100842.22
2018-01-22T22:31:27.699Z,100851.15
2018-01-22T22:33:56.883Z,100850.50
2018-01-22T22:36:26.163Z,100853.25
2018-01-22T22:38:55.358Z,100860.67
2018-01-22T22:41:24.862Z,100874.75
2018-01-22T22:43:54.923Z,100876.36
2018-01-22T22:46:25.208Z,100880.95
2018-01-22T22:48:55.250Z,100893.60
2018-01-22T22:51:25.304Z,100893.38
2018-01-22T22:53:54.697Z,100895.33
2018-01-22T22:56:24.892Z,100897.30
2018-01-22T22:58:54.389Z,100893.74
2018-01-22T23:01:25.118Z,100897.77
2018-01-22T23:03:55.451Z,100903.00
2018-01-22T23:06:24.758Z,100898.18
2018-01-22T23:08:54.005Z,100907.05
2018-01-22T23:11:25.038Z,100919.90
2018-01-22T23:13:54.356Z,100922.38
2018-01-22T23:16:23.536Z,100915.99
2018-01-22T23:18:52.768Z,100915.55
2018-01-22T23:21:22.058Z,100931.77
2018-01-22T23:23:54.370Z,100942.11
2018-01-22T23:26:23.602Z,100944.77
2018-01-22T23:28:54.354Z,100948.85
2018-01-22T23:31:23.702Z,100957.94
2018-01-22T23:33:54.670Z,100950.36
2018-01-22T23:39:20.716Z,100959.97
2018-01-22T23:41:52.186Z,100952.84
2018-01-22T23:44:21.362Z,100955.41
2018-01-22T23:46:50.512Z,100948.41
2018-01-22T23:49:20.171Z,100970.16
2018-01-22T23:51:49.945Z,100972.92
2018-01-22T23:54:22.023Z,100978.94
2018-01-22T23:56:51.527Z,100983.36
2018-01-22T23:59:20.845Z,100988.33
